createdAt,value
2023-02-26T00:00:49.072Z,0.70
2023-02-26T00:01:39.153Z,0.73
2023-02-26T00:02:29.214Z,0.70
2023-02-26T00:03:19.320Z,0.71
2023-02-26T00:04:09.291Z,0.70
2023-02-26T00:04:59.339Z,0.72
2023-02-26T00:05:49.371Z,0.73
2023-02-26T00:06:39.465Z,0.71
2023-02-26T00:07:29.490Z,0.72
2023-02-26T00:08:19.590Z,0.71
2023-02-26T00:09:09.623Z,0.72
2023-02-26T00:09:59.706Z,0.71
2023-02-26T00:10:49.770Z,0.72
2023-02-26T00:11:39.818Z,0.71
2023-02-26T00:12:30.128Z,0.72
2023-02-26T00:13:20.252Z,0.70
2023-02-26T00:14:10.242Z,0.71
2023-02-26T00:15:00.300Z,0.70
2023-02-26T00:15:50.352Z,0.71
2023-02-26T00:16:40.413Z,0.71
2023-02-26T00:17:30.447Z,0.73
2023-02-26T00:18:20.523Z,0.73
2023-02-26T00:19:10.610Z,0.73
2023-02-26T00:20:00.641Z,0.73
2023-02-26T00:20:50.676Z,0.72
2023-02-26T00:21:40.762Z,0.74
2023-02-26T00:22:30.789Z,0.74
2023-02-26T00:23:20.858Z,0.72
2023-02-26T00:24:10.889Z,0.74
2023-02-26T00:25:00.982Z,0.73
2023-02-26T00:25:51.048Z,0.73
2023-02-26T00:26:41.093Z,0.72
2023-02-26T00:27:31.124Z,0.73
2023-02-26T00:28:21.193Z,0.74
2023-02-26T00:29:11.243Z,0.73
2023-02-26T00:30:01.310Z,0.75
2023-02-26T00:30:51.369Z,0.74
2023-02-26T00:31:41.477Z,0.73
2023-02-26T00:32:32.269Z,0.75
2023-02-26T00:33:21.565Z,0.73
2023-02-26T00:34:11.588Z,0.73
2023-02-26T00:35:01.628Z,0.73
2023-02-26T00:35:51.663Z,0.74
2023-02-26T00:36:41.703Z,0.74
2023-02-26T00:37:31.754Z,0.72
2023-02-26T00:38:21.792Z,0.72
2023-02-26T00:39:11.881Z,0.74
2023-02-26T00:40:01.950Z,0.74
2023-02-26T00:40:51.978Z,0.74
2023-02-26T00:41:42.366Z,0.73
2023-02-26T00:42:32.360Z,0.74
2023-02-26T00:43:22.454Z,0.74
2023-02-26T00:44:12.483Z,0.74
2023-02-26T00:45:02.610Z,0.73
2023-02-26T00:45:52.651Z,0.72
2023-02-26T00:46:42.658Z,0.72
2023-02-26T00:47:32.701Z,0.73
2023-02-26T00:48:22.796Z,0.73
2023-02-26T00:49:12.823Z,0.71
2023-02-26T00:50:02.868Z,0.71
2023-02-26T00:50:52.895Z,0.72
2023-02-26T00:51:42.936Z,0.73
2023-02-26T00:52:33.056Z,0.73
2023-02-26T00:53:23.087Z,0.73
2023-02-26T00:54:13.112Z,0.72
2023-02-26T00:55:03.183Z,0.73
2023-02-26T00:55:53.245Z,0.74
2023-02-26T00:56:43.320Z,0.72
2023-02-26T00:57:33.350Z,0.72
2023-02-26T00:58:23.459Z,0.72
2023-02-26T00:59:13.663Z,0.73
2023-02-26T01:00:03.748Z,0.72
2023-02-26T01:00:53.814Z,0.74
2023-02-26T01:01:43.821Z,0.72
2023-02-26T01:02:33.856Z,0.72
2023-02-26T01:03:23.959Z,0.69
2023-02-26T01:04:14.089Z,0.72
2023-02-26T01:05:04.057Z,0.72
2023-02-26T01:05:54.130Z,0.72
2023-02-26T01:06:44.208Z,0.73
2023-02-26T01:07:34.238Z,0.72
2023-02-26T01:08:24.589Z,0.71
2023-02-26T01:09:14.628Z,0.72
2023-02-26T01:10:04.672Z,0.71
2023-02-26T01:10:54.699Z,0.71
2023-02-26T01:11:44.785Z,0.71
2023-02-26T01:12:34.821Z,0.72
2023-02-26T01:13:24.910Z,0.69
2023-02-26T01:14:14.936Z,0.70
2023-02-26T01:15:05.015Z,0.71
2023-02-26T01:15:55.090Z,0.71
2023-02-26T01:16:45.121Z,0.71
2023-02-26T01:17:35.126Z,0.73
2023-02-26T01:18:25.184Z,0.70
2023-02-26T01:19:15.236Z,0.71
2023-02-26T01:20:05.304Z,0.69
2023-02-26T01:20:55.367Z,0.70
2023-02-26T01:21:45.449Z,0.70
2023-02-26T01:22:35.470Z,0.68
2023-02-26T01:23:25.536Z,0.68
2023-02-26T01:24:15.559Z,0.70
2023-02-26T01:25:05.613Z,0.70
2023-02-26T01:25:55.628Z,0.68
2023-02-26T01:26:45.720Z,0.71
2023-02-26T01:27:35.749Z,0.70
2023-02-26T01:28:25.820Z,0.69
2023-02-26T01:29:15.856Z,0.70
2023-02-26T01:30:05.909Z,0.72
2023-02-26T01:30:56.080Z,0.68
2023-02-26T01:31:46.185Z,0.70
2023-02-26T01:32:36.089Z,0.67
2023-02-26T01:33:26.100Z,0.68
2023-02-26T01:34:16.142Z,0.68
2023-02-26T01:35:06.314Z,0.69
2023-02-26T01:35:56.394Z,0.69
2023-02-26T01:36:46.413Z,0.68
2023-02-26T01:37:36.487Z,0.68
2023-02-26T01:38:26.576Z,0.66
2023-02-26T01:39:16.621Z,0.68
2023-02-26T01:40:06.662Z,0.66
2023-02-26T01:40:56.739Z,0.67
2023-02-26T01:41:46.778Z,0.66
2023-02-26T01:42:36.820Z,0.65
2023-02-26T01:43:26.865Z,0.66
2023-02-26T01:44:16.907Z,0.65
2023-02-26T01:45:06.948Z,0.66
2023-02-26T01:45:56.984Z,0.66
2023-02-26T01:46:47.106Z,0.65
2023-02-26T01:47:37.131Z,0.66
2023-02-26T01:48:27.203Z,0.66
2023-02-26T01:49:17.223Z,0.64
2023-02-26T01:50:07.248Z,0.66
2023-02-26T01:50:57.316Z,0.66
2023-02-26T01:51:47.370Z,0.66
2023-02-26T01:52:37.397Z,0.67
2023-02-26T01:53:27.500Z,0.65
2023-02-26T01:54:18.033Z,0.65
2023-02-26T01:55:07.658Z,0.66
2023-02-26T01:55:57.740Z,0.66
2023-02-26T01:56:47.773Z,0.65
2023-02-26T01:57:38.122Z,0.68
2023-02-26T01:58:28.169Z,0.63
2023-02-26T01:59:18.199Z,0.65
2023-02-26T02:00:08.244Z,0.64
2023-02-26T02:00:58.298Z,0.66
2023-02-26T02:01:48.366Z,0.66
2023-02-26T02:02:38.516Z,0.66
2023-02-26T02:03:28.602Z,0.64
2023-02-26T02:04:18.560Z,0.65
2023-02-26T02:05:08.617Z,0.65
2023-02-26T02:05:58.652Z,0.63
2023-02-26T02:06:48.990Z,0.65
2023-02-26T02:07:39.022Z,0.65
2023-02-26T02:08:29.100Z,0.66
2023-02-26T02:09:19.118Z,0.66
2023-02-26T02:10:09.162Z,0.67
2023-02-26T02:10:59.198Z,0.66
2023-02-26T02:11:49.238Z,0.65
2023-02-26T02:12:39.272Z,0.65
2023-02-26T02:13:29.382Z,0.65
2023-02-26T02:14:19.417Z,0.65
2023-02-26T02:15:09.473Z,0.63
2023-02-26T02:15:59.549Z,0.65
2023-02-26T02:16:49.656Z,0.64
2023-02-26T02:17:39.633Z,0.65
2023-02-26T02:18:29.699Z,0.63
2023-02-26T02:19:19.726Z,0.62
2023-02-26T02:20:09.836Z,0.63
2023-02-26T02:20:59.845Z,0.64
2023-02-26T02:21:49.884Z,0.61
2023-02-26T02:22:39.952Z,0.60
2023-02-26T02:23:30.041Z,0.60
2023-02-26T02:24:20.065Z,0.60
2023-02-26T02:25:10.140Z,0.59
2023-02-26T02:26:00.191Z,0.60
2023-02-26T02:26:50.257Z,0.60
2023-02-26T02:27:40.335Z,0.59
2023-02-26T02:28:30.390Z,0.59
2023-02-26T02:29:20.644Z,0.60
2023-02-26T02:30:10.703Z,0.58
2023-02-26T02:31:00.843Z,0.58
2023-02-26T02:31:50.995Z,0.58
2023-02-26T02:32:40.885Z,0.58
2023-02-26T02:33:30.943Z,0.57
2023-02-26T02:34:20.968Z,0.58
2023-02-26T02:35:11.015Z,0.56
2023-02-26T02:36:01.286Z,0.56
2023-02-26T02:36:51.343Z,0.57
2023-02-26T02:37:41.380Z,0.58
2023-02-26T02:38:31.745Z,0.57
2023-02-26T02:39:21.781Z,0.56
2023-02-26T02:40:11.830Z,0.57
2023-02-26T02:41:01.862Z,0.57
2023-02-26T02:41:51.943Z,0.55
2023-02-26T02:42:41.980Z,0.56
2023-02-26T02:43:32.068Z,0.56
2023-02-26T02:44:22.099Z,0.57
2023-02-26T02:45:12.179Z,0.56
2023-02-26T02:46:02.277Z,0.57
2023-02-26T02:46:52.381Z,0.56
2023-02-26T02:47:42.331Z,0.56
2023-02-26T02:48:32.396Z,0.56
2023-02-26T02:49:22.457Z,0.54
2023-02-26T02:50:12.478Z,0.55
2023-02-26T02:51:02.628Z,0.56
2023-02-26T02:51:52.599Z,0.54
2023-02-26T02:52:42.631Z,0.55
2023-02-26T02:53:32.698Z,0.54
2023-02-26T02:54:22.724Z,0.55
2023-02-26T02:55:12.808Z,0.55
2023-02-26T02:56:02.830Z,0.55
2023-02-26T02:56:52.904Z,0.55
2023-02-26T02:57:42.937Z,0.55
2023-02-26T02:58:33.043Z,0.54
2023-02-26T02:59:23.065Z,0.56
2023-02-26T03:00:13.139Z,0.55
2023-02-26T03:01:03.462Z,0.54
2023-02-26T03:01:53.447Z,0.53
2023-02-26T03:02:43.503Z,0.55
2023-02-26T03:03:33.563Z,0.55
2023-02-26T03:04:23.601Z,0.54
2023-02-26T03:05:13.676Z,0.53
2023-02-26T03:06:03.707Z,0.53
2023-02-26T03:06:53.815Z,0.53
2023-02-26T03:07:43.817Z,0.55
2023-02-26T03:08:33.901Z,0.54
2023-02-26T03:09:23.921Z,0.54
2023-02-26T03:10:13.994Z,0.53
2023-02-26T03:11:04.020Z,0.54
2023-02-26T03:11:54.101Z,0.53
2023-02-26T03:12:44.132Z,0.54
2023-02-26T03:13:34.196Z,0.54
2023-02-26T03:14:24.262Z,0.55
2023-02-26T03:15:14.338Z,0.51
2023-02-26T03:16:04.439Z,0.55
2023-02-26T03:16:54.782Z,0.53
2023-02-26T03:17:44.728Z,0.54
2023-02-26T03:18:34.834Z,0.53
2023-02-26T03:19:24.862Z,0.53
2023-02-26T03:20:14.952Z,0.53
2023-02-26T03:21:04.975Z,0.53
2023-02-26T03:21:55.073Z,0.54
2023-02-26T03:22:45.117Z,0.54
2023-02-26T03:23:35.170Z,0.52
2023-02-26T03:24:25.208Z,0.52
2023-02-26T03:25:15.280Z,0.54
2023-02-26T03:26:05.565Z,0.54
2023-02-26T03:26:55.602Z,0.51
2023-02-26T03:27:45.644Z,0.53
2023-02-26T03:28:35.706Z,0.53
2023-02-26T03:29:25.733Z,0.52
2023-02-26T03:30:15.832Z,0.53
2023-02-26T03:31:05.923Z,0.53
2023-02-26T03:31:56.113Z,0.53
2023-02-26T03:32:45.965Z,0.53
2023-02-26T03:33:36.065Z,0.53
2023-02-26T03:34:26.099Z,0.53
2023-02-26T03:35:16.432Z,0.52
2023-02-26T03:36:06.463Z,0.53
2023-02-26T03:36:56.501Z,0.53
2023-02-26T03:37:46.528Z,0.52
2023-02-26T03:38:36.608Z,0.51
2023-02-26T03:39:26.627Z,0.52
2023-02-26T03:40:16.703Z,0.51
2023-02-26T03:41:06.737Z,0.51
2023-02-26T03:41:56.818Z,0.51
2023-02-26T03:42:46.848Z,0.52
2023-02-26T03:43:36.957Z,0.51
2023-02-26T03:44:27.242Z,0.51
2023-02-26T03:45:17.328Z,0.52
2023-02-26T03:46:07.473Z,0.52
2023-02-26T03:46:57.409Z,0.51
2023-02-26T03:47:47.434Z,0.51
2023-02-26T03:48:37.594Z,0.52
2023-02-26T03:49:27.547Z,0.51
2023-02-26T03:50:17.626Z,0.52
2023-02-26T03:51:07.695Z,0.51
2023-02-26T03:51:57.773Z,0.51
2023-02-26T03:52:47.801Z,0.50
2023-02-26T03:53:38.065Z,0.51
2023-02-26T03:54:28.129Z,0.51
2023-02-26T03:55:18.192Z,0.50
2023-02-26T03:56:08.214Z,0.51
2023-02-26T03:56:58.296Z,0.51
2023-02-26T03:57:48.320Z,0.52
2023-02-26T03:58:38.421Z,0.51
2023-02-26T03:59:28.448Z,0.51
2023-02-26T04:00:18.525Z,0.52
2023-02-26T04:01:08.553Z,0.52
2023-02-26T04:01:58.653Z,0.51
2023-02-26T04:02:48.927Z,0.52
2023-02-26T04:03:39.045Z,0.51
2023-02-26T04:04:29.111Z,0.52
2023-02-26T04:05:19.125Z,0.51
2023-02-26T04:06:09.154Z,0.52
2023-02-26T04:06:59.237Z,0.51
2023-02-26T04:07:49.285Z,0.51
2023-02-26T04:08:39.358Z,0.51
2023-02-26T04:09:29.386Z,0.51
2023-02-26T04:10:19.490Z,0.51
2023-02-26T04:11:09.496Z,0.51
2023-02-26T04:11:59.835Z,0.53
2023-02-26T04:12:49.858Z,0.52
2023-02-26T04:13:39.955Z,0.53
2023-02-26T04:14:29.998Z,0.53
2023-02-26T04:15:20.077Z,0.54
2023-02-26T04:16:10.114Z,0.51
2023-02-26T04:17:00.378Z,0.53
2023-02-26T04:17:50.219Z,0.51
2023-02-26T04:18:40.355Z,0.52
2023-02-26T04:19:30.344Z,0.52
2023-02-26T04:20:20.423Z,0.51
2023-02-26T04:21:10.708Z,0.50
2023-02-26T04:22:00.792Z,0.53
2023-02-26T04:22:50.813Z,0.53
2023-02-26T04:23:40.912Z,0.52
2023-02-26T04:24:30.940Z,0.52
2023-02-26T04:25:21.023Z,0.51
2023-02-26T04:26:11.082Z,0.52
2023-02-26T04:27:01.121Z,0.52
2023-02-26T04:27:51.193Z,0.51
2023-02-26T04:28:41.285Z,0.52
2023-02-26T04:29:31.311Z,0.53
2023-02-26T04:30:21.651Z,0.53
2023-02-26T04:31:11.804Z,0.52
2023-02-26T04:32:01.883Z,0.51
2023-02-26T04:32:51.773Z,0.52
2023-02-26T04:33:41.876Z,0.53
2023-02-26T04:34:31.906Z,0.52
2023-02-26T04:35:21.962Z,0.51
2023-02-26T04:36:11.998Z,0.52
2023-02-26T04:37:02.080Z,0.52
2023-02-26T04:37:52.119Z,0.51
2023-02-26T04:38:42.212Z,0.51
2023-02-26T04:39:32.494Z,0.51
2023-02-26T04:40:22.577Z,0.52
2023-02-26T04:41:12.607Z,0.51
2023-02-26T04:42:02.972Z,0.50
2023-02-26T04:42:53.014Z,0.53
2023-02-26T04:43:43.111Z,0.52
2023-02-26T04:44:33.390Z,0.52
2023-02-26T04:45:23.464Z,0.52
2023-02-26T04:46:13.643Z,0.53
2023-02-26T04:47:03.568Z,0.52
2023-02-26T04:47:53.590Z,0.52
2023-02-26T04:48:43.685Z,0.52
2023-02-26T04:49:33.716Z,0.53
2023-02-26T04:50:23.789Z,0.53
2023-02-26T04:51:13.820Z,0.54
2023-02-26T04:52:03.933Z,0.53
2023-02-26T04:52:53.947Z,0.53
2023-02-26T04:53:44.310Z,0.52
2023-02-26T04:54:34.275Z,0.53
2023-02-26T04:55:24.349Z,0.53
2023-02-26T04:56:14.386Z,0.53
2023-02-26T04:57:04.445Z,0.53
2023-02-26T04:57:54.459Z,0.53
2023-02-26T04:58:44.570Z,0.54
2023-02-26T04:59:34.588Z,0.52
2023-02-26T05:00:24.665Z,0.51
2023-02-26T05:01:14.825Z,0.51
2023-02-26T05:02:04.756Z,0.51
2023-02-26T05:02:54.832Z,0.51
2023-02-26T05:03:44.884Z,0.53
2023-02-26T05:04:34.959Z,0.53
2023-02-26T05:05:24.940Z,0.53
2023-02-26T05:06:15.013Z,0.52
2023-02-26T05:07:05.060Z,0.52
2023-02-26T05:07:55.131Z,0.52
2023-02-26T05:08:45.183Z,0.52
2023-02-26T05:09:35.209Z,0.53
2023-02-26T05:10:25.287Z,0.51
2023-02-26T05:11:15.361Z,0.51
2023-02-26T05:12:05.423Z,0.52
2023-02-26T05:12:55.526Z,0.52
2023-02-26T05:13:45.553Z,0.51
2023-02-26T05:14:35.594Z,0.51
2023-02-26T05:15:25.616Z,0.50
2023-02-26T05:16:15.966Z,0.51
2023-02-26T05:17:05.918Z,0.51
2023-02-26T05:17:56.002Z,0.51
2023-02-26T05:18:46.340Z,0.52
2023-02-26T05:19:36.372Z,0.51
2023-02-26T05:20:26.404Z,0.51
2023-02-26T05:21:16.453Z,0.52
2023-02-26T05:22:06.484Z,0.51
2023-02-26T05:22:56.522Z,0.52
2023-02-26T05:23:46.568Z,0.50
2023-02-26T05:24:36.628Z,0.50
2023-02-26T05:25:26.694Z,0.52
2023-02-26T05:26:16.764Z,0.52
2023-02-26T05:27:06.794Z,0.52
2023-02-26T05:27:57.129Z,0.51
2023-02-26T05:28:47.242Z,0.51
2023-02-26T05:29:37.217Z,0.52
2023-02-26T05:30:27.286Z,0.52
2023-02-26T05:31:17.392Z,0.51
2023-02-26T05:32:07.434Z,0.52
2023-02-26T05:32:57.461Z,0.52
2023-02-26T05:33:47.509Z,0.50
2023-02-26T05:34:37.546Z,0.51
2023-02-26T05:35:27.575Z,0.50
2023-02-26T05:36:17.605Z,0.52
2023-02-26T05:37:07.644Z,0.52
2023-02-26T05:37:57.693Z,0.53
2023-02-26T05:38:47.740Z,0.53
2023-02-26T05:39:37.771Z,0.53
2023-02-26T05:40:27.838Z,0.54
2023-02-26T05:41:17.928Z,0.52
2023-02-26T05:42:07.957Z,0.52
2023-02-26T05:42:58.017Z,0.52
2023-02-26T05:43:48.068Z,0.52
2023-02-26T05:44:38.110Z,0.52
2023-02-26T05:45:28.117Z,0.53
2023-02-26T05:46:18.226Z,0.53
2023-02-26T05:47:08.223Z,0.52
2023-02-26T05:47:58.297Z,0.52
2023-02-26T05:48:48.359Z,0.52
2023-02-26T05:49:38.385Z,0.52
2023-02-26T05:50:28.425Z,0.53
2023-02-26T05:51:18.457Z,0.52
2023-02-26T05:52:08.481Z,0.53
2023-02-26T05:52:58.559Z,0.53
2023-02-26T05:53:48.641Z,0.53
2023-02-26T05:54:38.704Z,0.52
2023-02-26T05:55:28.736Z,0.51
2023-02-26T05:56:18.806Z,0.53
2023-02-26T05:57:09.092Z,0.53
2023-02-26T05:57:59.175Z,0.52
2023-02-26T05:58:49.216Z,0.53
2023-02-26T05:59:39.281Z,0.52
2023-02-26T06:00:29.315Z,0.52
2023-02-26T06:01:19.373Z,0.51
2023-02-26T06:02:09.515Z,0.51
2023-02-26T06:02:59.543Z,0.52
2023-02-26T06:03:49.537Z,0.53
2023-02-26T06:04:39.579Z,0.52
2023-02-26T06:05:29.617Z,0.52
2023-02-26T06:06:19.696Z,0.51
2023-02-26T06:07:09.730Z,0.50
2023-02-26T06:07:59.813Z,0.52
2023-02-26T06:08:49.856Z,0.51
2023-02-26T06:09:39.894Z,0.52
2023-02-26T06:10:29.926Z,0.51
2023-02-26T06:11:20.039Z,0.51
2023-02-26T06:12:10.049Z,0.52
2023-02-26T06:13:00.371Z,0.52
2023-02-26T06:13:50.420Z,0.51
2023-02-26T06:14:40.456Z,0.51
2023-02-26T06:15:30.518Z,0.51
2023-02-26T06:16:20.619Z,0.52
2023-02-26T06:17:10.627Z,0.50
2023-02-26T06:18:00.667Z,0.51
2023-02-26T06:18:50.710Z,0.52
2023-02-26T06:19:40.750Z,0.53
2023-02-26T06:20:30.781Z,0.53
2023-02-26T06:21:20.851Z,0.51
2023-02-26T06:22:11.178Z,0.52
2023-02-26T06:23:01.260Z,0.53
2023-02-26T06:23:51.296Z,0.51
2023-02-26T06:24:41.337Z,0.50
2023-02-26T06:25:31.376Z,0.53
2023-02-26T06:26:23.715Z,0.53
2023-02-26T06:27:11.507Z,0.53
2023-02-26T06:28:01.557Z,0.51
2023-02-26T06:28:51.771Z,0.51
2023-02-26T06:29:41.812Z,0.52
2023-02-26T06:30:31.903Z,0.52
2023-02-26T06:31:21.956Z,0.54
2023-02-26T06:32:12.023Z,0.53
2023-02-26T06:33:01.975Z,0.53
2023-02-26T06:33:52.034Z,0.53
2023-02-26T06:34:42.075Z,0.53
2023-02-26T06:35:32.167Z,0.53
2023-02-26T06:36:22.250Z,0.53
2023-02-26T06:37:12.276Z,0.54
2023-02-26T06:38:02.360Z,0.54
2023-02-26T06:38:52.413Z,0.54
2023-02-26T06:39:42.439Z,0.53
2023-02-26T06:40:32.469Z,0.53
2023-02-26T06:41:22.545Z,0.53
2023-02-26T06:42:12.591Z,0.52
2023-02-26T06:43:02.624Z,0.52
2023-02-26T06:43:52.675Z,0.53
2023-02-26T06:44:42.713Z,0.52
2023-02-26T06:45:32.840Z,0.53
2023-02-26T06:46:23.110Z,0.53
2023-02-26T06:47:12.861Z,0.54
2023-02-26T06:48:03.017Z,0.53
2023-02-26T06:48:52.993Z,0.53
2023-02-26T06:49:43.032Z,0.53
2023-02-26T06:50:33.057Z,0.54
2023-02-26T06:51:23.402Z,0.52
2023-02-26T06:52:13.430Z,0.54
2023-02-26T06:53:03.506Z,0.53
2023-02-26T06:53:53.840Z,0.51
2023-02-26T06:54:43.899Z,0.52
2023-02-26T06:55:33.914Z,0.53
2023-02-26T06:56:24.446Z,0.52
2023-02-26T06:57:14.018Z,0.53
2023-02-26T06:58:04.263Z,0.53
2023-02-26T06:58:54.307Z,0.52
2023-02-26T06:59:44.380Z,0.52
2023-02-26T07:00:34.413Z,0.52
2023-02-26T07:01:24.484Z,0.53
2023-02-26T07:02:14.564Z,0.53
2023-02-26T07:03:04.613Z,0.53
2023-02-26T07:03:54.643Z,0.53
2023-02-26T07:04:44.700Z,0.53
2023-02-26T07:05:34.731Z,0.51
2023-02-26T07:06:27.876Z,0.52
2023-02-26T07:07:14.870Z,0.52
2023-02-26T07:08:04.946Z,0.51
2023-02-26T07:08:55.117Z,0.51
2023-02-26T07:09:46.144Z,0.50
2023-02-26T07:10:35.110Z,0.50
2023-02-26T07:11:25.168Z,0.50
2023-02-26T07:12:15.228Z,0.51
2023-02-26T07:13:05.289Z,0.52
2023-02-26T07:13:55.365Z,0.52
2023-02-26T07:14:45.433Z,0.51
2023-02-26T07:15:35.422Z,0.52
2023-02-26T07:16:25.897Z,0.52
2023-02-26T07:17:15.703Z,0.52
2023-02-26T07:18:05.779Z,0.50
2023-02-26T07:18:55.821Z,0.53
2023-02-26T07:19:45.880Z,0.52
2023-02-26T07:20:35.932Z,0.51
2023-02-26T07:21:25.974Z,0.53
2023-02-26T07:22:16.040Z,0.52
2023-02-26T07:23:06.081Z,0.52
2023-02-26T07:23:56.140Z,0.54
2023-02-26T07:24:46.173Z,0.52
2023-02-26T07:25:36.203Z,0.51
2023-02-26T07:26:26.882Z,0.53
2023-02-26T07:27:16.588Z,0.53
2023-02-26T07:28:06.668Z,0.52
2023-02-26T07:28:56.712Z,0.52
2023-02-26T07:29:46.748Z,0.53
2023-02-26T07:30:36.912Z,0.51
2023-02-26T07:31:27.049Z,0.51
2023-02-26T07:32:16.983Z,0.52
2023-02-26T07:33:06.981Z,0.53
2023-02-26T07:33:57.023Z,0.53
2023-02-26T07:34:47.059Z,0.53
2023-02-26T07:35:37.153Z,0.52
2023-02-26T07:36:27.580Z,0.52
2023-02-26T07:37:17.223Z,0.51
2023-02-26T07:38:07.264Z,0.52
2023-02-26T07:38:57.333Z,0.53
2023-02-26T07:39:47.418Z,0.54
2023-02-26T07:40:37.462Z,0.55
2023-02-26T07:41:27.524Z,0.51
2023-02-26T07:42:17.554Z,0.52
2023-02-26T07:43:07.658Z,0.52
2023-02-26T07:43:57.713Z,0.52
2023-02-26T07:44:47.746Z,0.53
2023-02-26T07:45:37.778Z,0.52
2023-02-26T07:46:28.241Z,0.52
2023-02-26T07:47:17.918Z,0.52
2023-02-26T07:48:07.988Z,0.52
2023-02-26T07:48:58.066Z,0.52
2023-02-26T07:49:48.100Z,0.53
2023-02-26T07:50:38.153Z,0.52
2023-02-26T07:51:28.396Z,0.51
2023-02-26T07:52:18.290Z,0.51
2023-02-26T07:53:08.317Z,0.51
2023-02-26T07:53:58.589Z,0.50
2023-02-26T07:54:48.632Z,0.51
2023-02-26T07:55:38.665Z,0.52
2023-02-26T07:56:28.793Z,0.52
2023-02-26T07:57:18.755Z,0.54
2023-02-26T07:58:08.796Z,0.54
2023-02-26T07:58:58.831Z,0.54
2023-02-26T07:59:48.870Z,0.52
2023-02-26T08:00:39.000Z,0.52
2023-02-26T08:01:29.048Z,0.51
2023-02-26T08:02:19.082Z,0.52
2023-02-26T08:03:09.126Z,0.52
2023-02-26T08:03:59.243Z,0.52
2023-02-26T08:04:49.247Z,0.50
2023-02-26T08:05:39.297Z,0.51
2023-02-26T08:06:29.376Z,0.51
2023-02-26T08:07:19.439Z,0.52
2023-02-26T08:08:09.453Z,0.53
2023-02-26T08:08:59.499Z,0.55
2023-02-26T08:09:49.539Z,0.55
2023-02-26T08:10:41.903Z,0.54
2023-02-26T08:11:29.607Z,0.53
2023-02-26T08:12:19.680Z,0.52
2023-02-26T08:13:09.954Z,0.50
2023-02-26T08:14:00.004Z,0.51
2023-02-26T08:14:50.042Z,0.52
2023-02-26T08:15:40.122Z,0.51
2023-02-26T08:16:30.110Z,0.51
2023-02-26T08:17:20.143Z,0.53
2023-02-26T08:18:10.249Z,0.52
2023-02-26T08:19:00.293Z,0.51
2023-02-26T08:19:50.349Z,0.51
2023-02-26T08:20:40.416Z,0.52
2023-02-26T08:21:30.451Z,0.51
2023-02-26T08:22:20.456Z,0.50
2023-02-26T08:23:10.557Z,0.51
2023-02-26T08:24:00.595Z,0.52
2023-02-26T08:24:50.657Z,0.52
2023-02-26T08:25:40.718Z,0.53
2023-02-26T08:26:30.790Z,0.52
2023-02-26T08:27:20.847Z,0.52
2023-02-26T08:28:10.911Z,0.53
2023-02-26T08:29:00.979Z,0.51
2023-02-26T08:29:51.018Z,0.52
2023-02-26T08:30:41.097Z,0.52
2023-02-26T08:31:31.427Z,0.53
2023-02-26T08:32:21.471Z,0.52
2023-02-26T08:33:11.442Z,0.52
2023-02-26T08:34:01.490Z,0.52
2023-02-26T08:34:51.541Z,0.51
2023-02-26T08:35:41.580Z,0.53
2023-02-26T08:36:31.673Z,0.52
2023-02-26T08:37:21.716Z,0.53
2023-02-26T08:38:11.768Z,0.53
2023-02-26T08:39:01.892Z,0.54
2023-02-26T08:39:51.922Z,0.53
2023-02-26T08:40:41.947Z,0.53
2023-02-26T08:41:31.984Z,0.54
2023-02-26T08:42:22.029Z,0.54
2023-02-26T08:43:12.076Z,0.54
2023-02-26T08:44:02.116Z,0.54
2023-02-26T08:44:52.200Z,0.54
2023-02-26T08:45:42.228Z,0.54
2023-02-26T08:46:32.305Z,0.53
2023-02-26T08:47:28.740Z,0.54
2023-02-26T08:48:13.372Z,0.54
2023-02-26T08:49:02.430Z,0.54
2023-02-26T08:49:52.447Z,0.54
2023-02-26T08:50:42.516Z,0.54
2023-02-26T08:51:32.588Z,0.54
2023-02-26T08:52:22.665Z,0.53
2023-02-26T08:53:12.732Z,0.54
2023-02-26T08:54:02.809Z,0.54
2023-02-26T08:54:52.864Z,0.57
2023-02-26T08:55:42.909Z,0.58
2023-02-26T08:56:32.989Z,0.58
2023-02-26T08:57:23.163Z,0.57
2023-02-26T08:58:13.198Z,0.60
2023-02-26T08:59:03.274Z,0.58
2023-02-26T08:59:53.312Z,0.59
2023-02-26T09:00:43.332Z,0.60
2023-02-26T09:01:33.431Z,0.60
2023-02-26T09:02:23.490Z,0.59
2023-02-26T09:03:13.621Z,0.58
2023-02-26T09:04:03.597Z,0.58
2023-02-26T09:04:53.633Z,0.56
2023-02-26T09:05:43.696Z,0.56
2023-02-26T09:06:33.775Z,0.57
2023-02-26T09:07:23.793Z,0.57
2023-02-26T09:08:13.872Z,0.56
2023-02-26T09:09:03.952Z,0.56
2023-02-26T09:09:53.993Z,0.55
2023-02-26T09:10:44.060Z,0.58
2023-02-26T09:11:34.123Z,0.57
2023-02-26T09:12:24.354Z,0.58
2023-02-26T09:13:14.436Z,0.56
2023-02-26T09:14:04.494Z,0.58
2023-02-26T09:14:54.532Z,0.57
2023-02-26T09:15:44.559Z,0.58
2023-02-26T09:16:34.669Z,0.55
2023-02-26T09:17:24.664Z,0.56
2023-02-26T09:18:14.790Z,0.56
2023-02-26T09:19:04.802Z,0.57
2023-02-26T09:19:54.831Z,0.57
2023-02-26T09:20:44.869Z,0.56
2023-02-26T09:21:35.214Z,0.57
2023-02-26T09:22:25.269Z,0.56
2023-02-26T09:23:15.300Z,0.57
2023-02-26T09:24:05.345Z,0.57
2023-02-26T09:24:55.394Z,0.58
2023-02-26T09:25:45.422Z,0.57
2023-02-26T09:26:35.524Z,0.59
2023-02-26T09:27:25.531Z,0.58
2023-02-26T09:28:15.649Z,0.57
2023-02-26T09:29:05.680Z,0.58
2023-02-26T09:29:55.747Z,0.59
2023-02-26T09:30:46.093Z,0.58
2023-02-26T09:31:36.146Z,0.56
2023-02-26T09:32:26.351Z,0.57
2023-02-26T09:33:16.192Z,0.58
2023-02-26T09:34:06.248Z,0.58
2023-02-26T09:34:56.301Z,0.59
2023-02-26T09:35:46.329Z,0.57
2023-02-26T09:36:36.407Z,0.59
2023-02-26T09:37:26.458Z,0.59
2023-02-26T09:38:16.535Z,0.59
2023-02-26T09:39:06.612Z,0.60
2023-02-26T09:39:56.642Z,0.59
2023-02-26T09:40:46.673Z,0.59
2023-02-26T09:41:36.755Z,0.60
2023-02-26T09:42:26.807Z,0.60
2023-02-26T09:43:16.860Z,0.59
2023-02-26T09:44:06.911Z,0.59
2023-02-26T09:44:56.946Z,0.61
2023-02-26T09:45:47.014Z,0.60
2023-02-26T09:46:37.014Z,0.60
2023-02-26T09:47:27.086Z,0.61
2023-02-26T09:48:17.164Z,0.60
2023-02-26T09:49:07.208Z,0.62
2023-02-26T09:49:57.271Z,0.62
2023-02-26T09:50:47.272Z,0.62
2023-02-26T09:51:37.348Z,0.62
2023-02-26T09:52:27.416Z,0.63
2023-02-26T09:53:17.682Z,0.62
2023-02-26T09:54:07.718Z,0.60
2023-02-26T09:54:57.777Z,0.62
2023-02-26T09:55:47.922Z,0.63
2023-02-26T09:56:37.851Z,0.62
2023-02-26T09:57:27.896Z,0.62
2023-02-26T09:58:19.052Z,0.62
2023-02-26T09:59:08.010Z,0.63
2023-02-26T09:59:58.061Z,0.64
2023-02-26T10:00:48.085Z,0.64
2023-02-26T10:01:38.250Z,0.65
2023-02-26T10:02:28.203Z,0.63
2023-02-26T10:03:18.249Z,0.64
2023-02-26T10:04:08.398Z,0.64
2023-02-26T10:04:58.323Z,0.65
2023-02-26T10:05:48.361Z,0.64
2023-02-26T10:06:38.431Z,0.65
2023-02-26T10:07:28.472Z,0.66
2023-02-26T10:08:18.642Z,0.63
2023-02-26T10:09:08.697Z,0.64
2023-02-26T10:09:58.732Z,0.65
2023-02-26T10:10:48.766Z,0.65
2023-02-26T10:11:38.814Z,0.65
2023-02-26T10:12:28.867Z,0.66
2023-02-26T10:13:18.903Z,0.66
2023-02-26T10:14:08.984Z,0.65
2023-02-26T10:14:59.049Z,0.64
2023-02-26T10:15:49.077Z,0.66
2023-02-26T10:16:39.267Z,0.66
2023-02-26T10:17:29.221Z,0.68
2023-02-26T10:18:19.277Z,0.66
2023-02-26T10:19:09.334Z,0.67
2023-02-26T10:19:59.377Z,0.66
2023-02-26T10:20:49.471Z,0.64
2023-02-26T10:21:39.510Z,0.64
2023-02-26T10:22:29.539Z,0.67
2023-02-26T10:23:19.627Z,0.67
2023-02-26T10:24:09.664Z,0.65
2023-02-26T10:24:59.707Z,0.64
2023-02-26T10:25:49.735Z,0.66
2023-02-26T10:26:39.815Z,0.66
2023-02-26T10:27:29.847Z,0.66
2023-02-26T10:28:19.938Z,0.65
2023-02-26T10:29:09.997Z,0.67
2023-02-26T10:30:00.068Z,0.66
2023-02-26T10:30:50.083Z,0.65
2023-02-26T10:31:40.162Z,0.64
2023-02-26T10:32:30.293Z,0.65
2023-02-26T10:33:20.219Z,0.65
2023-02-26T10:34:10.282Z,0.66
2023-02-26T10:35:00.355Z,0.66
2023-02-26T10:35:50.388Z,0.64
2023-02-26T10:36:40.467Z,0.65
2023-02-26T10:37:30.800Z,0.64
2023-02-26T10:38:20.878Z,0.66
2023-02-26T10:39:10.933Z,0.65
2023-02-26T10:40:00.973Z,0.65
2023-02-26T10:40:51.011Z,0.65
2023-02-26T10:41:41.099Z,0.64
2023-02-26T10:42:31.125Z,0.65
2023-02-26T10:43:21.206Z,0.66
2023-02-26T10:44:11.262Z,0.65
2023-02-26T10:45:01.301Z,0.66
2023-02-26T10:45:51.407Z,0.66
2023-02-26T10:46:41.432Z,0.66
2023-02-26T10:47:31.452Z,0.64
2023-02-26T10:48:21.502Z,0.65
2023-02-26T10:49:11.555Z,0.66
2023-02-26T10:50:01.657Z,0.65
2023-02-26T10:50:51.675Z,0.65
2023-02-26T10:51:41.751Z,0.65
2023-02-26T10:52:31.778Z,0.66
2023-02-26T10:53:21.878Z,0.66
2023-02-26T10:54:11.914Z,0.65
2023-02-26T10:55:01.953Z,0.63
2023-02-26T10:55:51.979Z,0.66
2023-02-26T10:56:42.119Z,0.67
2023-02-26T10:57:32.114Z,0.65
2023-02-26T10:58:22.169Z,0.64
2023-02-26T10:59:12.205Z,0.63
2023-02-26T11:00:02.248Z,0.65
2023-02-26T11:00:52.315Z,0.64
2023-02-26T11:01:42.397Z,0.64
2023-02-26T11:02:32.411Z,0.63
2023-02-26T11:03:22.474Z,0.64
2023-02-26T11:04:12.582Z,0.63
2023-02-26T11:05:07.775Z,0.63
2023-02-26T11:05:53.666Z,0.63
2023-02-26T11:06:42.747Z,0.63